Time;durP1;ratioP1;P1;durP2;ratioP2;P2;SDS_P1;SDS_P2;PMS_P1;PMS_P2;Temp;Humidity;BMP_temperature;BMP_pressure;BME280_temperature;BME280_humidity;BME280_pressure;Samples;Min_cycle;Max_cycle;Signal;HPM_P1;HPM_P2
2022/12/28 00:00:49;;;;;;;7.20;3.40;;;;;;;;;;5005242;28;20504;-63
2022/12/28 00:03:15;;;;;;;8.05;2.95;;;;;;;;;;5010316;28;20030;-63
2022/12/28 00:05:41;;;;;;;7.18;3.88;;;;;;;;;;5011330;28;20049;-63
2022/12/28 00:08:07;;;;;;;12.48;3.60;;;;;;;;;;5007926;28;20423;-63
2022/12/28 00:10:33;;;;;;;8.63;4.88;;;;;;;;;;5006504;28;20034;-63
2022/12/28 00:12:59;;;;;;;12.00;3.40;;;;;;;;;;5019168;28;20041;-63
2022/12/28 00:15:25;;;;;;;8.88;4.00;;;;;;;;;;5010082;28;20124;-64
2022/12/28 00:17:51;;;;;;;8.30;3.63;;;;;;;;;;5009884;28;20073;-64
2022/12/28 00:20:17;;;;;;;8.75;3.63;;;;;;;;;;5005198;28;20403;-64
2022/12/28 00:22:43;;;;;;;6.70;3.55;;;;;;;;;;5010488;28;20088;-63
2022/12/28 00:25:09;;;;;;;7.18;3.80;;;;;;;;;;5007159;28;20042;-64
2022/12/28 00:27:35;;;;;;;12.88;4.38;;;;;;;;;;5007295;28;20046;-64
2022/12/28 00:30:01;;;;;;;8.20;3.75;;;;;;;;;;5005719;28;20038;-64
2022/12/28 00:32:29;;;;;;;10.13;4.00;;;;;;;;;;5014414;28;20050;-64
2022/12/28 00:34:54;;;;;;;7.20;4.03;;;;;;;;;;5014895;28;20041;-65
2022/12/28 00:37:20;;;;;;;10.40;3.83;;;;;;;;;;5016844;28;20041;-64
2022/12/28 00:39:46;;;;;;;8.50;2.80;;;;;;;;;;5010297;28;20041;-64
2022/12/28 00:42:12;;;;;;;10.43;4.10;;;;;;;;;;5013051;28;20030;-64
2022/12/28 00:44:39;;;;;;;10.65;4.28;;;;;;;;;;5009585;28;20093;-64
2022/12/28 00:47:05;;;;;;;11.80;4.40;;;;;;;;;;5014827;28;20091;-64
2022/12/28 00:49:31;;;;;;;10.30;4.07;;;;;;;;;;5010282;28;20045;-64
2022/12/28 00:51:57;;;;;;;12.32;3.75;;;;;;;;;;5013213;28;20530;-64
2022/12/28 00:54:23;;;;;;;9.30;4.82;;;;;;;;;;5017366;28;20048;-64
2022/12/28 00:56:49;;;;;;;12.18;4.90;;;;;;;;;;5013987;28;20030;-64
2022/12/28 00:59:15;;;;;;;9.07;3.90;;;;;;;;;;5011755;28;20416;-64
2022/12/28 01:01:41;;;;;;;9.32;4.30;;;;;;;;;;5011426;28;20053;-64
2022/12/28 01:04:07;;;;;;;7.18;3.95;;;;;;;;;;5010065;28;20041;-63
2022/12/28 01:06:33;;;;;;;10.50;4.15;;;;;;;;;;5020293;28;20107;-64
2022/12/28 01:08:59;;;;;;;8.00;4.28;;;;;;;;;;5011609;28;20042;-63
2022/12/28 01:11:26;;;;;;;8.80;3.83;;;;;;;;;;5012634;28;20092;-63
2022/12/28 01:13:53;;;;;;;8.75;4.47;;;;;;;;;;5004900;28;20093;-63
2022/12/28 01:16:25;;;;;;;11.32;4.72;;;;;;;;;;5019434;28;20076;-63
2022/12/28 01:18:52;;;;;;;13.10;4.47;;;;;;;;;;5024737;28;20038;-63
2022/12/28 01:21:19;;;;;;;9.15;4.20;;;;;;;;;;5013767;28;20042;-63
2022/12/28 01:23:46;;;;;;;9.32;4.47;;;;;;;;;;5018144;28;20048;-63
2022/12/28 01:26:12;;;;;;;9.60;4.43;;;;;;;;;;5006996;28;20041;-63
2022/12/28 01:28:38;;;;;;;9.48;4.00;;;;;;;;;;5011407;28;20106;-63
2022/12/28 01:31:05;;;;;;;8.10;4.43;;;;;;;;;;5010930;28;20563;-63
2022/12/28 01:33:31;;;;;;;9.68;5.10;;;;;;;;;;5008330;28;20180;-63
2022/12/28 01:35:57;;;;;;;10.57;4.85;;;;;;;;;;5007199;28;20041;-63
2022/12/28 01:38:23;;;;;;;13.02;4.90;;;;;;;;;;5012685;28;20042;-63
2022/12/28 01:40:49;;;;;;;12.48;4.57;;;;;;;;;;5019187;22;20042;-66
2022/12/28 01:43:15;;;;;;;12.88;4.32;;;;;;;;;;5006771;28;20061;-66
2022/12/28 01:45:49;;;;;;;11.25;4.88;;;;;;;;;;5009049;28;20116;-67
2022/12/28 01:48:19;;;;;;;8.20;4.78;;;;;;;;;;5013440;28;20045;-66
2022/12/28 01:50:45;;;;;;;8.37;4.43;;;;;;;;;;5012053;28;20567;-67
2022/12/28 01:53:11;;;;;;;11.02;4.70;;;;;;;;;;5011105;28;20165;-67
2022/12/28 01:55:41;;;;;;;11.00;4.35;;;;;;;;;;5010499;28;20034;-67
2022/12/28 01:58:12;;;;;;;6.47;3.90;;;;;;;;;;5012576;28;20056;-68
2022/12/28 02:00:38;;;;;;;7.13;3.20;;;;;;;;;;5011895;28;20037;-68
2022/12/28 02:03:06;;;;;;;7.03;3.28;;;;;;;;;;5010652;28;20038;-67
2022/12/28 02:05:34;;;;;;;9.55;4.15;;;;;;;;;;5009971;28;20085;-68
2022/12/28 02:08:07;;;;;;;6.50;3.30;;;;;;;;;;5011904;28;20140;-67
2022/12/28 02:10:35;;;;;;;7.15;3.95;;;;;;;;;;5011094;28;20395;-68
2022/12/28 02:13:02;;;;;;;10.10;4.68;;;;;;;;;;5009323;28;20040;-68
2022/12/28 02:15:28;;;;;;;8.40;4.22;;;;;;;;;;5010536;28;20200;-68
2022/12/28 02:17:54;;;;;;;12.52;4.70;;;;;;;;;;5019298;28;20572;-68
2022/12/28 02:20:20;;;;;;;8.32;4.32;;;;;;;;;;5010301;28;20034;-68
2022/12/28 02:22:52;;;;;;;10.93;5.25;;;;;;;;;;5008293;28;20503;-68
2022/12/28 02:25:30;;;;;;;5.05;3.25;;;;;;;;;;5007644;28;20037;-67
2022/12/28 02:27:56;;;;;;;8.35;4.32;;;;;;;;;;5009335;28;20123;-68
2022/12/28 02:30:22;;;;;;;6.65;4.57;;;;;;;;;;5011623;28;20068;-67
2022/12/28 02:32:48;;;;;;;6.97;4.05;;;;;;;;;;5011031;28;20225;-67
2022/12/28 02:35:33;;;;;;;10.07;4.43;;;;;;;;;;5012629;28;20045;-67
2022/12/28 02:38:02;;;;;;;9.27;4.75;;;;;;;;;;5004591;28;20041;-67
2022/12/28 02:40:33;;;;;;;8.10;3.95;;;;;;;;;;5009080;28;20081;-67
2022/12/28 02:43:00;;;;;;;8.70;4.28;;;;;;;;;;5010823;28;20061;-68
2022/12/28 02:51:31;;;;;;;12.93;4.93;;;;;;;;;;5005364;28;20453;-69
2022/12/28 02:56:05;;;;;;;11.02;5.00;;;;;;;;;;5008542;28;20470;-69
2022/12/28 02:57:01;;;;;;;7.32;4.80;;;;;;;;;;5009816;28;20073;-69
2022/12/28 02:59:33;;;;;;;11.13;4.85;;;;;;;;;;5011329;28;20037;-69
2022/12/28 03:02:08;;;;;;;12.02;5.30;;;;;;;;;;5007568;28;20487;-69
2022/12/28 03:04:53;;;;;;;8.57;4.85;;;;;;;;;;5003394;28;20030;-68
2022/12/28 03:10:14;;;;;;;11.00;5.43;;;;;;;;;;4992415;28;20057;-68
2022/12/28 03:12:46;;;;;;;9.30;5.50;;;;;;;;;;5001932;28;20408;-68
2022/12/28 03:15:29;;;;;;;8.85;5.22;;;;;;;;;;5009834;28;20038;-69
2022/12/28 03:31:52;;;;;;;8.63;4.80;;;;;;;;;;5010388;28;20049;-69
2022/12/28 03:34:18;;;;;;;6.93;4.65;;;;;;;;;;5006175;28;20460;-68
2022/12/28 03:36:46;;;;;;;8.63;4.53;;;;;;;;;;5010725;28;20084;-68
2022/12/28 03:39:22;;;;;;;6.13;3.83;;;;;;;;;;5008672;28;20396;-68
2022/12/28 03:44:37;;;;;;;12.48;5.45;;;;;;;;;;5007040;28;20053;-67
2022/12/28 03:47:08;;;;;;;9.43;5.50;;;;;;;;;;5010982;28;20061;-68
2022/12/28 03:49:34;;;;;;;7.78;5.22;;;;;;;;;;5011674;28;20407;-67
2022/12/28 03:52:01;;;;;;;9.65;5.22;;;;;;;;;;5007761;28;20042;-68
2022/12/28 03:54:27;;;;;;;8.82;4.80;;;;;;;;;;5009864;28;20049;-68
2022/12/28 03:56:53;;;;;;;11.35;4.88;;;;;;;;;;5008469;28;20073;-68
2022/12/28 03:59:19;;;;;;;9.25;5.13;;;;;;;;;;5007490;28;20111;-68
2022/12/28 04:01:45;;;;;;;10.48;4.93;;;;;;;;;;5008991;28;20041;-68
2022/12/28 04:04:11;;;;;;;7.22;4.57;;;;;;;;;;5010540;28;20476;-68
2022/12/28 04:06:38;;;;;;;7.88;4.40;;;;;;;;;;5012759;28;20416;-68
2022/12/28 04:09:05;;;;;;;8.13;4.38;;;;;;;;;;5014834;28;20633;-68
2022/12/28 04:11:31;;;;;;;6.55;4.15;;;;;;;;;;5013088;28;20042;-68
2022/12/28 04:13:57;;;;;;;7.57;4.57;;;;;;;;;;5013043;28;20422;-69
2022/12/28 04:16:23;;;;;;;7.38;4.28;;;;;;;;;;5011897;28;20048;-68
2022/12/28 04:18:49;;;;;;;6.45;4.60;;;;;;;;;;5014457;28;20125;-68
2022/12/28 04:21:15;;;;;;;10.52;4.80;;;;;;;;;;5013725;28;20080;-68
2022/12/28 04:23:41;;;;;;;4.00;2.97;;;;;;;;;;5014966;28;20042;-68
2022/12/28 04:26:10;;;;;;;7.90;3.65;;;;;;;;;;5012709;28;20045;-68
2022/12/28 04:28:36;;;;;;;5.90;3.35;;;;;;;;;;5015034;28;20049;-68
2022/12/28 04:31:03;;;;;;;6.45;3.28;;;;;;;;;;5010544;28;20124;-69
2022/12/28 04:33:32;;;;;;;5.53;3.47;;;;;;;;;;5009928;28;20491;-69
2022/12/28 04:36:08;;;;;;;5.15;3.45;;;;;;;;;;5012559;28;20042;-69
2022/12/28 04:38:34;;;;;;;5.55;4.00;;;;;;;;;;5013762;28;20044;-70
2022/12/28 04:41:00;;;;;;;6.03;3.35;;;;;;;;;;5012711;28;20044;-69
2022/12/28 04:43:26;;;;;;;4.70;3.60;;;;;;;;;;5013847;28;20045;-69
2022/12/28 04:45:59;;;;;;;4.80;3.33;;;;;;;;;;5010915;28;20069;-69
2022/12/28 04:48:25;;;;;;;4.22;3.20;;;;;;;;;;5012106;28;20038;-70
2022/12/28 04:50:52;;;;;;;5.85;3.72;;;;;;;;;;5012043;28;20048;-69
2022/12/28 04:53:18;;;;;;;7.40;4.03;;;;;;;;;;5009451;28;20034;-69
2022/12/28 04:55:44;;;;;;;6.10;3.55;;;;;;;;;;5011497;28;20042;-69
2022/12/28 04:58:10;;;;;;;5.55;3.63;;;;;;;;;;5007621;28;20373;-69
2022/12/28 05:00:36;;;;;;;5.30;2.97;;;;;;;;;;5010009;28;20500;-70
2022/12/28 05:03:02;;;;;;;6.85;3.90;;;;;;;;;;5002634;28;20037;-69
2022/12/28 05:05:28;;;;;;;6.63;3.45;;;;;;;;;;5012256;28;20091;-69
2022/12/28 05:07:55;;;;;;;4.93;3.33;;;;;;;;;;5010930;28;20037;-69
2022/12/28 05:10:21;;;;;;;4.82;3.50;;;;;;;;;;5010263;28;20046;-69
2022/12/28 05:12:47;;;;;;;5.28;3.60;;;;;;;;;;5006017;28;20113;-69
2022/12/28 05:15:13;;;;;;;6.00;3.53;;;;;;;;;;5006607;28;20196;-69
2022/12/28 05:17:39;;;;;;;5.75;3.75;;;;;;;;;;5011507;28;20479;-69
2022/12/28 05:20:05;;;;;;;6.30;4.03;;;;;;;;;;5012498;28;20041;-68
2022/12/28 05:22:31;;;;;;;6.00;3.83;;;;;;;;;;5011320;28;20033;-68
2022/12/28 05:24:57;;;;;;;6.00;3.70;;;;;;;;;;5009741;28;20049;-69
2022/12/28 05:27:23;;;;;;;4.78;3.65;;;;;;;;;;5009653;28;20576;-69
2022/12/28 05:29:49;;;;;;;6.45;3.83;;;;;;;;;;5005940;28;20041;-69
2022/12/28 05:32:15;;;;;;;5.25;3.63;;;;;;;;;;5010839;28;20451;-70
2022/12/28 05:34:41;;;;;;;5.88;3.95;;;;;;;;;;5001438;28;20077;-69
2022/12/28 05:37:07;;;;;;;4.95;3.00;;;;;;;;;;5003453;28;20438;-68
2022/12/28 05:39:33;;;;;;;4.75;4.13;;;;;;;;;;5004523;28;20168;-68
2022/12/28 05:42:01;;;;;;;5.40;4.07;;;;;;;;;;4971464;28;1052939;-68
2022/12/28 05:44:27;;;;;;;5.80;4.25;;;;;;;;;;5013067;28;20042;-68
2022/12/28 05:46:53;;;;;;;7.07;4.35;;;;;;;;;;5011784;28;20088;-68
2022/12/28 05:49:19;;;;;;;5.47;4.40;;;;;;;;;;5010768;28;20033;-69
2022/12/28 05:51:45;;;;;;;6.22;4.47;;;;;;;;;;5012702;28;20045;-68
2022/12/28 05:54:11;;;;;;;7.60;4.88;;;;;;;;;;5013012;28;20526;-69
2022/12/28 05:56:37;;;;;;;6.35;4.47;;;;;;;;;;5012904;28;20049;-68
2022/12/28 05:59:04;;;;;;;5.30;4.63;;;;;;;;;;5008110;28;20034;-69
2022/12/28 06:01:32;;;;;;;7.05;4.70;;;;;;;;;;5008056;28;20096;-69
2022/12/28 06:03:59;;;;;;;6.40;3.90;;;;;;;;;;5011937;28;20038;-69
2022/12/28 06:06:26;;;;;;;5.18;3.92;;;;;;;;;;5013126;28;20045;-68
2022/12/28 06:08:52;;;;;;;6.00;4.40;;;;;;;;;;5010526;28;20444;-68
2022/12/28 06:11:19;;;;;;;6.28;3.92;;;;;;;;;;5013090;28;20172;-68
2022/12/28 06:13:45;;;;;;;5.70;4.18;;;;;;;;;;5012199;28;20084;-68
2022/12/28 06:16:13;;;;;;;6.00;4.22;;;;;;;;;;5006551;28;20050;-68
2022/12/28 06:18:39;;;;;;;6.82;5.30;;;;;;;;;;5008026;28;20066;-68
2022/12/28 06:21:09;;;;;;;6.72;4.72;;;;;;;;;;5004864;28;20077;-68
2022/12/28 06:23:35;;;;;;;7.65;5.32;;;;;;;;;;5010065;28;20038;-68
2022/12/28 06:26:02;;;;;;;7.07;4.32;;;;;;;;;;5009129;28;20124;-68
2022/12/28 06:28:28;;;;;;;8.60;5.68;;;;;;;;;;5011116;28;20042;-68
2022/12/28 06:31:03;;;;;;;7.53;4.97;;;;;;;;;;5009887;28;20037;-68
2022/12/28 06:33:29;;;;;;;5.82;4.82;;;;;;;;;;5010169;28;20121;-68
2022/12/28 06:35:55;;;;;;;9.20;5.53;;;;;;;;;;5010836;28;20045;-68
2022/12/28 06:38:21;;;;;;;6.95;5.03;;;;;;;;;;5006755;28;20117;-68
2022/12/28 06:40:47;;;;;;;7.75;5.72;;;;;;;;;;5010447;28;20041;-69
2022/12/28 06:43:13;;;;;;;6.55;4.43;;;;;;;;;;5008186;28;20495;-68
2022/12/28 06:45:39;;;;;;;7.78;5.50;;;;;;;;;;5009087;28;20078;-68
2022/12/28 06:48:05;;;;;;;8.65;5.75;;;;;;;;;;5010119;28;20402;-68
2022/12/28 06:50:31;;;;;;;8.23;5.68;;;;;;;;;;5009368;28;20038;-68
2022/12/28 06:52:57;;;;;;;8.10;6.38;;;;;;;;;;5012012;28;20049;-68
2022/12/28 06:55:23;;;;;;;6.63;4.85;;;;;;;;;;5011844;28;20100;-69
2022/12/28 06:57:49;;;;;;;8.20;6.10;;;;;;;;;;5011277;28;20084;-69
2022/12/28 07:00:15;;;;;;;10.00;5.60;;;;;;;;;;5011698;28;20042;-69
2022/12/28 07:02:41;;;;;;;9.40;6.18;;;;;;;;;;5009108;28;20037;-69
2022/12/28 07:05:07;;;;;;;9.18;6.07;;;;;;;;;;5011182;28;20037;-68
2022/12/28 07:07:33;;;;;;;9.23;5.72;;;;;;;;;;5008172;28;20038;-69
2022/12/28 07:09:59;;;;;;;9.27;6.80;;;;;;;;;;5009713;28;20037;-69
2022/12/28 07:12:25;;;;;;;10.07;7.05;;;;;;;;;;5009797;28;20046;-69
2022/12/28 07:14:51;;;;;;;10.93;7.28;;;;;;;;;;5009553;28;20077;-69
2022/12/28 07:17:17;;;;;;;8.63;6.15;;;;;;;;;;5010738;28;20038;-68
2022/12/28 07:19:43;;;;;;;11.07;7.60;;;;;;;;;;5001690;28;20036;-67
2022/12/28 07:22:09;;;;;;;10.40;6.93;;;;;;;;;;5005007;28;20492;-68
2022/12/28 07:24:35;;;;;;;10.43;7.60;;;;;;;;;;5005158;28;20042;-69
2022/12/28 07:27:01;;;;;;;11.75;7.80;;;;;;;;;;5006447;28;20065;-68
2022/12/28 07:29:27;;;;;;;12.25;7.80;;;;;;;;;;5009152;28;20491;-69
2022/12/28 07:31:53;;;;;;;12.10;7.82;;;;;;;;;;5009442;28;20041;-68
2022/12/28 07:34:19;;;;;;;9.30;7.28;;;;;;;;;;5013425;28;20038;-69
2022/12/28 07:36:45;;;;;;;12.98;8.43;;;;;;;;;;5010747;28;20033;-69
2022/12/28 07:39:11;;;;;;;10.43;6.88;;;;;;;;;;5006020;28;20045;-69
2022/12/28 07:41:37;;;;;;;11.85;8.45;;;;;;;;;;5011575;22;20117;-63
2022/12/28 07:44:03;;;;;;;14.27;8.98;;;;;;;;;;4987684;28;20042;-63
2022/12/28 07:46:30;;;;;;;8.63;6.53;;;;;;;;;;4990062;28;20496;-63
2022/12/28 07:48:56;;;;;;;11.32;7.68;;;;;;;;;;4990015;28;20500;-63
2022/12/28 07:51:30;;;;;;;9.70;6.70;;;;;;;;;;4995512;28;20128;-63
2022/12/28 07:53:56;;;;;;;12.80;8.95;;;;;;;;;;4998083;28;20042;-63
2022/12/28 07:56:23;;;;;;;15.75;9.48;;;;;;;;;;5007009;28;20124;-62
2022/12/28 07:58:50;;;;;;;14.57;9.32;;;;;;;;;;5007434;28;20518;-63
2022/12/28 08:01:17;;;;;;;13.20;8.90;;;;;;;;;;5008932;28;20409;-63
2022/12/28 08:03:43;;;;;;;13.48;8.95;;;;;;;;;;5001025;28;20042;-62
2022/12/28 08:06:14;;;;;;;12.80;9.35;;;;;;;;;;4999235;28;20034;-63
2022/12/28 08:08:41;;;;;;;10.80;8.10;;;;;;;;;;5002145;28;20073;-63
2022/12/28 08:11:11;;;;;;;12.68;9.55;;;;;;;;;;4994593;28;20598;-62
2022/12/28 08:13:38;;;;;;;14.93;9.20;;;;;;;;;;4991909;28;20046;-63
2022/12/28 08:16:05;;;;;;;12.70;8.57;;;;;;;;;;4985225;28;20038;-63
2022/12/28 08:18:31;;;;;;;14.38;9.20;;;;;;;;;;4997742;28;20129;-64
2022/12/28 08:21:05;;;;;;;13.43;8.75;;;;;;;;;;5000429;28;20744;-63
2022/12/28 08:23:31;;;;;;;11.55;7.75;;;;;;;;;;4992442;28;20038;-63
2022/12/28 08:26:04;;;;;;;10.77;7.78;;;;;;;;;;5005744;28;20057;-62
2022/12/28 08:28:30;;;;;;;13.95;7.85;;;;;;;;;;4996396;28;20431;-62
2022/12/28 08:30:56;;;;;;;13.20;8.02;;;;;;;;;;5000090;28;20357;-62
2022/12/28 08:33:22;;;;;;;16.30;10.48;;;;;;;;;;5007231;28;20041;-62
2022/12/28 08:35:48;;;;;;;12.02;7.28;;;;;;;;;;4999845;28;20041;-63
2022/12/28 08:38:14;;;;;;;11.68;8.02;;;;;;;;;;5002349;28;20492;-63
2022/12/28 08:40:40;;;;;;;9.50;5.70;;;;;;;;;;4990785;28;20045;-63
2022/12/28 08:43:06;;;;;;;9.57;6.78;;;;;;;;;;5000312;28;20043;-62
2022/12/28 08:45:32;;;;;;;9.77;7.00;;;;;;;;;;5008817;28;20404;-62
2022/12/28 08:47:58;;;;;;;9.70;7.20;;;;;;;;;;4995757;28;20042;-62
2022/12/28 08:50:24;;;;;;;9.95;6.93;;;;;;;;;;5006975;28;20065;-63
2022/12/28 08:52:50;;;;;;;10.13;6.07;;;;;;;;;;4998328;28;20049;-62
2022/12/28 08:55:16;;;;;;;9.32;6.30;;;;;;;;;;5007658;28;20462;-62
2022/12/28 08:57:42;;;;;;;10.35;7.00;;;;;;;;;;5008636;28;20065;-62
2022/12/28 09:00:08;;;;;;;8.95;5.97;;;;;;;;;;5009144;28;20120;-62
2022/12/28 09:02:34;;;;;;;9.07;6.65;;;;;;;;;;4996851;28;20061;-62
2022/12/28 09:05:00;;;;;;;9.23;6.05;;;;;;;;;;5003563;28;20038;-62
2022/12/28 09:07:26;;;;;;;9.30;6.10;;;;;;;;;;5010104;28;20060;-63
2022/12/28 09:09:52;;;;;;;9.60;6.03;;;;;;;;;;5009860;28;20045;-62
2022/12/28 09:12:18;;;;;;;8.50;5.07;;;;;;;;;;5003972;28;20066;-63
2022/12/28 09:14:44;;;;;;;8.70;5.30;;;;;;;;;;4999964;28;20045;-63
2022/12/28 09:17:10;;;;;;;9.63;5.85;;;;;;;;;;5003309;28;20492;-63
2022/12/28 09:19:36;;;;;;;8.73;6.55;;;;;;;;;;5001605;28;20137;-63
2022/12/28 09:22:02;;;;;;;8.88;6.80;;;;;;;;;;5005415;28;20034;-63
2022/12/28 09:24:28;;;;;;;8.90;6.10;;;;;;;;;;4999234;28;20045;-63
2022/12/28 09:26:54;;;;;;;6.18;5.18;;;;;;;;;;5008256;28;20053;-63
2022/12/28 09:29:20;;;;;;;10.25;5.90;;;;;;;;;;5007013;28;20046;-63
2022/12/28 09:31:46;;;;;;;9.32;7.00;;;;;;;;;;4997268;28;20135;-63
2022/12/28 09:34:12;;;;;;;9.57;6.55;;;;;;;;;;5000670;28;20165;-63
2022/12/28 09:36:40;;;;;;;9.43;6.03;;;;;;;;;;5003114;28;20121;-63
2022/12/28 09:39:12;;;;;;;10.00;6.05;;;;;;;;;;5005378;28;20046;-63
2022/12/28 09:41:38;;;;;;;9.75;5.80;;;;;;;;;;5005724;28;20403;-63
2022/12/28 09:44:04;;;;;;;10.05;6.55;;;;;;;;;;5008226;28;20053;-64
2022/12/28 09:46:31;;;;;;;9.00;6.05;;;;;;;;;;5007499;28;20538;-63
2022/12/28 09:48:59;;;;;;;7.28;4.75;;;;;;;;;;5012979;28;20052;-63
2022/12/28 09:51:30;;;;;;;10.30;7.15;;;;;;;;;;5000217;28;20040;-63
2022/12/28 09:53:56;;;;;;;10.68;6.47;;;;;;;;;;4997387;28;20072;-63
2022/12/28 09:56:26;;;;;;;11.13;7.13;;;;;;;;;;5005012;28;20049;-63
2022/12/28 09:58:53;;;;;;;9.57;6.82;;;;;;;;;;5003661;28;20107;-63
2022/12/28 10:01:20;;;;;;;10.05;6.32;;;;;;;;;;5006071;28;20045;-63
2022/12/28 10:03:46;;;;;;;10.82;6.72;;;;;;;;;;5005810;28;20034;-63
2022/12/28 10:06:12;;;;;;;11.48;7.00;;;;;;;;;;5002687;28;20045;-63
2022/12/28 10:08:41;;;;;;;12.50;8.20;;;;;;;;;;4999183;28;20131;-63
2022/12/28 10:11:07;;;;;;;10.02;6.80;;;;;;;;;;5021785;22;20044;-63
2022/12/28 10:13:37;;;;;;;7.13;5.32;;;;;;;;;;5031502;28;20041;-63
2022/12/28 10:16:04;;;;;;;8.45;5.47;;;;;;;;;;5024355;28;20041;-63
2022/12/28 10:18:31;;;;;;;8.85;6.53;;;;;;;;;;5032874;28;20061;-63
2022/12/28 10:20:57;;;;;;;8.25;5.45;;;;;;;;;;5032413;28;20574;-63
2022/12/28 10:23:25;;;;;;;7.25;4.93;;;;;;;;;;5014328;28;20049;-63
2022/12/28 10:25:53;;;;;;;9.18;6.22;;;;;;;;;;5031717;28;20148;-63
2022/12/28 10:28:20;;;;;;;10.02;6.28;;;;;;;;;;5013909;28;20132;-63
2022/12/28 10:30:48;;;;;;;8.05;5.70;;;;;;;;;;5032872;28;20041;-63
2022/12/28 10:33:18;;;;;;;9.82;6.00;;;;;;;;;;5031856;28;20077;-63
2022/12/28 10:35:51;;;;;;;7.75;5.43;;;;;;;;;;5032220;28;20045;-63
2022/12/28 10:38:20;;;;;;;6.43;4.25;;;;;;;;;;5030808;28;20124;-63
2022/12/28 10:40:55;;;;;;;6.55;4.82;;;;;;;;;;5024281;28;20109;-62
2022/12/28 10:43:21;;;;;;;6.15;4.50;;;;;;;;;;5031200;28;20082;-62
2022/12/28 10:45:51;;;;;;;6.50;4.85;;;;;;;;;;5014647;28;20046;-63
2022/12/28 10:48:28;;;;;;;7.47;4.97;;;;;;;;;;5030963;28;20048;-63
2022/12/28 10:51:10;;;;;;;7.55;4.93;;;;;;;;;;5031276;28;20041;-63
2022/12/28 10:53:39;;;;;;;7.60;4.75;;;;;;;;;;5031229;28;20044;-62
2022/12/28 10:56:14;;;;;;;7.63;4.80;;;;;;;;;;5031080;28;20045;-62
2022/12/28 10:58:42;;;;;;;8.15;4.47;;;;;;;;;;5032391;28;20538;-63
2022/12/28 11:01:14;;;;;;;5.93;3.83;;;;;;;;;;5031898;28;20049;-62
2022/12/28 11:03:44;;;;;;;6.35;4.93;;;;;;;;;;5022527;28;20038;-63
2022/12/28 11:06:12;;;;;;;5.90;4.40;;;;;;;;;;5031318;28;20399;-63
2022/12/28 11:08:38;;;;;;;5.55;3.50;;;;;;;;;;5031130;28;20041;-63
2022/12/28 11:11:05;;;;;;;6.13;4.63;;;;;;;;;;5013710;28;20125;-63
2022/12/28 11:13:31;;;;;;;7.15;3.97;;;;;;;;;;5031474;28;20042;-63
2022/12/28 11:15:58;;;;;;;5.68;4.28;;;;;;;;;;5028604;28;20052;-62
2022/12/28 11:18:24;;;;;;;6.35;4.28;;;;;;;;;;5011435;28;20077;-62
2022/12/28 11:20:51;;;;;;;5.32;3.67;;;;;;;;;;5014129;28;20458;-63
2022/12/28 11:23:25;;;;;;;5.50;4.03;;;;;;;;;;5031554;28;20033;-62
2022/12/28 11:25:51;;;;;;;5.32;4.10;;;;;;;;;;5030933;28;20105;-62
2022/12/28 11:28:19;;;;;;;6.20;3.80;;;;;;;;;;5014164;28;20503;-63
2022/12/28 11:30:45;;;;;;;7.07;4.00;;;;;;;;;;5012578;28;20072;-63
2022/12/28 11:33:40;;;;;;;4.97;4.03;;;;;;;;;;5023192;28;20048;-63
2022/12/28 11:36:14;;;;;;;6.32;4.00;;;;;;;;;;4986641;28;20045;-62
2022/12/28 11:38:41;;;;;;;5.55;4.32;;;;;;;;;;5024536;28;20048;-62
2022/12/28 11:41:31;;;;;;;6.03;4.20;;;;;;;;;;5026627;28;20057;-63
2022/12/28 11:43:59;;;;;;;5.00;3.58;;;;;;;;;;5024457;28;20054;-63
2022/12/28 11:46:25;;;;;;;5.40;4.05;;;;;;;;;;5023673;28;20050;-62
2022/12/28 11:48:54;;;;;;;3.90;2.85;;;;;;;;;;5012972;28;20047;-63
2022/12/28 11:51:22;;;;;;;4.20;2.78;;;;;;;;;;5029430;28;20037;-62
2022/12/28 11:53:49;;;;;;;4.47;2.95;;;;;;;;;;5028518;28;20521;-63
2022/12/28 11:56:16;;;;;;;3.42;3.13;;;;;;;;;;5029630;28;20128;-63
2022/12/28 11:59:02;;;;;;;6.18;3.40;;;;;;;;;;5031532;28;20046;-62
2022/12/28 12:01:28;;;;;;;3.67;2.92;;;;;;;;;;5025300;28;20034;-63
2022/12/28 12:03:57;;;;;;;3.83;2.75;;;;;;;;;;5028758;28;20096;-63
2022/12/28 12:06:42;;;;;;;3.67;2.95;;;;;;;;;;5029267;28;20048;-63
2022/12/28 12:09:20;;;;;;;3.60;2.75;;;;;;;;;;5025897;28;20124;-63
2022/12/28 12:11:47;;;;;;;3.22;2.70;;;;;;;;;;5029333;28;20499;-63
2022/12/28 12:14:15;;;;;;;5.47;3.00;;;;;;;;;;5012826;28;20045;-63
2022/12/28 12:16:47;;;;;;;4.22;2.78;;;;;;;;;;5027553;28;20041;-63
2022/12/28 12:19:22;;;;;;;3.40;2.88;;;;;;;;;;5024982;28;20077;-63
2022/12/28 12:21:59;;;;;;;4.60;3.50;;;;;;;;;;5025148;28;20033;-63
2022/12/28 12:24:28;;;;;;;4.28;3.03;;;;;;;;;;5023536;28;20087;-63
2022/12/28 12:26:58;;;;;;;4.00;2.80;;;;;;;;;;5030391;28;20046;-63
2022/12/28 12:29:37;;;;;;;4.38;3.03;;;;;;;;;;5033677;28;20049;-62
2022/12/28 12:32:05;;;;;;;4.75;2.85;;;;;;;;;;5032003;28;20072;-63
2022/12/28 12:34:31;;;;;;;4.97;3.30;;;;;;;;;;5041788;28;20411;-62
2022/12/28 12:37:06;;;;;;;4.45;3.00;;;;;;;;;;5033142;28;20041;-63
2022/12/28 12:39:44;;;;;;;6.07;2.90;;;;;;;;;;5032691;28;20041;-63
2022/12/28 12:42:13;;;;;;;5.07;3.25;;;;;;;;;;5018791;28;20476;-63
2022/12/28 12:44:45;;;;;;;4.15;2.70;;;;;;;;;;5030716;28;20065;-63
2022/12/28 12:47:37;;;;;;;3.47;2.80;;;;;;;;;;5033705;28;20034;-63
2022/12/28 12:50:12;;;;;;;2.95;2.28;;;;;;;;;;5032421;28;20037;-63
2022/12/28 12:52:38;;;;;;;4.70;2.67;;;;;;;;;;5032544;28;20487;-62
2022/12/28 12:55:04;;;;;;;3.08;2.40;;;;;;;;;;5027636;28;20175;-63
2022/12/28 12:57:46;;;;;;;4.35;2.85;;;;;;;;;;5015114;28;20068;-63
2022/12/28 13:00:17;;;;;;;3.45;2.30;;;;;;;;;;5030788;28;20041;-63
2022/12/28 13:02:51;;;;;;;3.28;2.55;;;;;;;;;;5012786;28;20507;-62
2022/12/28 13:05:19;;;;;;;2.83;2.03;;;;;;;;;;5027246;28;20060;-63
2022/12/28 13:07:45;;;;;;;2.75;2.10;;;;;;;;;;5013005;28;20056;-63
2022/12/28 13:10:17;;;;;;;2.33;1.83;;;;;;;;;;5011982;28;20045;-63
2022/12/28 13:12:43;;;;;;;3.53;1.95;;;;;;;;;;5032841;28;20045;-64
2022/12/28 13:15:16;;;;;;;2.90;1.73;;;;;;;;;;5015512;28;20049;-63
2022/12/28 13:18:02;;;;;;;2.00;1.80;;;;;;;;;;5031047;28;20469;-63
2022/12/28 13:20:28;;;;;;;2.17;1.88;;;;;;;;;;5027033;28;20037;-64
2022/12/28 13:22:55;;;;;;;2.33;1.55;;;;;;;;;;5030647;28;20030;-64
2022/12/28 13:25:25;;;;;;;2.17;1.98;;;;;;;;;;5031788;28;20083;-64
2022/12/28 13:27:51;;;;;;;1.70;1.60;;;;;;;;;;5033467;28;20495;-64
2022/12/28 13:30:18;;;;;;;2.85;1.55;;;;;;;;;;5037715;28;20049;-64
2022/12/28 13:33:10;;;;;;;2.40;1.50;;;;;;;;;;5031564;28;20083;-64
2022/12/28 13:35:36;;;;;;;3.08;1.70;;;;;;;;;;5028360;28;20053;-64
2022/12/28 13:38:08;;;;;;;1.67;1.58;;;;;;;;;;5024557;28;20049;-64
2022/12/28 13:40:35;;;;;;;3.40;1.63;;;;;;;;;;5049014;22;20380;-70
2022/12/28 13:43:17;;;;;;;4.30;1.67;;;;;;;;;;5046969;28;20052;-70
2022/12/28 13:45:42;;;;;;;;;;;;;;;;;;5047089;28;20527;-69
2022/12/28 13:48:08;;;;;;;3.20;1.60;;;;;;;;;;5051736;28;19920;-70
2022/12/28 13:50:38;;;;;;;2.22;1.42;;;;;;;;;;5054666;28;20051;-69
2022/12/28 13:53:07;;;;;;;2.13;1.50;;;;;;;;;;5064709;28;20045;-69
2022/12/28 13:55:39;;;;;;;2.38;1.70;;;;;;;;;;5055608;28;20049;-70
2022/12/28 13:58:08;;;;;;;2.60;1.55;;;;;;;;;;5053552;28;20037;-70
2022/12/28 14:00:36;;;;;;;2.25;1.65;;;;;;;;;;5071609;28;20089;-69
2022/12/28 14:03:06;;;;;;;3.88;1.80;;;;;;;;;;5062383;28;20067;-70
2022/12/28 14:05:33;;;;;;;2.63;1.90;;;;;;;;;;5069281;28;20098;-69
2022/12/28 14:08:01;;;;;;;4.40;2.20;;;;;;;;;;5072052;28;20788;-69
2022/12/28 14:10:28;;;;;;;2.88;2.40;;;;;;;;;;5064408;28;20494;-70
2022/12/28 14:12:54;;;;;;;3.72;2.10;;;;;;;;;;5072978;28;20591;-70
2022/12/28 14:15:21;;;;;;;4.75;2.40;;;;;;;;;;5071665;28;20136;-70
2022/12/28 14:17:48;;;;;;;3.67;2.10;;;;;;;;;;5071546;28;20560;-69
2022/12/28 14:20:14;;;;;;;3.20;2.30;;;;;;;;;;5072182;28;20032;-69
2022/12/28 14:22:40;;;;;;;3.80;2.55;;;;;;;;;;5062733;28;20391;-69
2022/12/28 14:25:08;;;;;;;4.53;2.35;;;;;;;;;;5054893;28;20067;-69
2022/12/28 14:27:45;;;;;;;3.75;2.60;;;;;;;;;;5072679;28;20219;-69
2022/12/28 14:30:41;;;;;;;5.88;2.90;;;;;;;;;;5072847;28;20063;-70
2022/12/28 14:33:16;;;;;;;6.32;3.05;;;;;;;;;;5048924;28;20411;-70
2022/12/28 14:35:46;;;;;;;4.68;3.00;;;;;;;;;;5063455;28;20437;-70
2022/12/28 14:38:16;;;;;;;5.00;2.85;;;;;;;;;;5052490;28;20061;-70
2022/12/28 14:40:42;;;;;;;5.95;3.00;;;;;;;;;;5052490;28;20486;-70
2022/12/28 14:43:35;;;;;;;5.85;3.10;;;;;;;;;;5062767;28;20390;-69
2022/12/28 14:46:17;;;;;;;6.18;3.60;;;;;;;;;;5059123;28;20040;-70
2022/12/28 14:48:44;;;;;;;6.57;3.25;;;;;;;;;;5071889;28;20047;-69
2022/12/28 14:51:16;;;;;;;10.25;3.38;;;;;;;;;;5072128;28;20418;-69
2022/12/28 14:53:42;;;;;;;5.53;3.47;;;;;;;;;;5071372;28;20040;-70
2022/12/28 14:56:16;;;;;;;8.25;3.65;;;;;;;;;;5053667;28;20047;-70
2022/12/28 14:58:42;;;;;;;8.50;3.45;;;;;;;;;;5071226;28;20068;-69
2022/12/28 15:01:09;;;;;;;6.10;3.65;;;;;;;;;;5052363;28;20068;-70
2022/12/28 15:03:53;;;;;;;7.15;4.30;;;;;;;;;;5056227;28;20126;-69
2022/12/28 15:06:20;;;;;;;5.63;3.85;;;;;;;;;;5064814;28;20437;-70
2022/12/28 15:08:47;;;;;;;6.05;4.10;;;;;;;;;;5071777;28;20115;-69
2022/12/28 15:11:13;;;;;;;6.78;3.97;;;;;;;;;;5071714;28;20048;-69
2022/12/28 15:13:39;;;;;;;6.45;3.90;;;;;;;;;;5060246;28;20068;-69